FMEEFMEP

Guest
Details From FMEE - St Denis Gillot
To FMEP - St Pierre Pierrefonds
Flight Number -
Tags Routegen Generated
Created
Modified
Stats Distance 35 nm / 64 km
Max Altitude 100 ft / 30 m
Waypoints 5
Social Downloads 3
Likes 0
Share VATSIM

Download

Looking for another format? Having issues loading an existing format? Contact us
Advertisement - Login to hide

Notes

Departing runway 10 FMEE. Arriving runway 12 FMEP.

Route

FMEE -20.91_+055.61 -21.09_+055.48 -21.27_+055.36 FMEP

ID Type Via Altitude Latitude Longitude Leg Dist Tot Dist Heading (true) Name
O FMEE APT - 0 ft / 0 m -20.89211˚ 55.53495˚ - 0 nm - -
-20.91_+055.61 LATLON - 100 ft / 30 m -20.90745˚ 55.61065˚ 4 nm 4 nm 102° / 102° -
-21.09_+055.48 LATLON - 100 ft / 30 m -21.08832˚ 55.48344˚ 12 nm 17 nm 213° / 213° -
-21.27_+055.36 LATLON - 100 ft / 30 m -21.26919˚ 55.35624˚ 12 nm 30 nm 213° / 213° -
O FMEP APT - 0 ft / 0 m -21.31476˚ 55.41658˚ 4 nm 34 nm 129° / 129° -

Altitude Profile

Advertisement - Login to hide

FMEE

Details ICAO FMEE (RUN)
Name St Denis Gillot
Region Comoros, Mayotte, Réunion and Madagascar
Timezone Indian/Reunion (UTC+4.0)
Stats Elevation 66 ft / 20 m (AMSL)
Location -20.889313° 55.517752°
Runways 2
Magnetic Variation 18.981° W

METAR

FMEE 180900Z 08018KT 9999 FEW033 BKN300 31/20 Q1015 NOSIG

Decode

TAF

TAF FMEE 180500Z 1806/1912 08015KT 9999 FEW026 SCT300 TEMPO 1807/1812 07015G25KT BECMG 1814/1816 15005KT PROB30 TEMPO 1818/1904 4500 SHRA BECMG 1904/1906 07015KT TEMPO 1907/1912 07015G25KT

Decode

Departure Runways

ID Width Length Bearing (true) Bearing (mag) Surface Threshold Offset Overrun Length
12 148 ft / 45 m 10,581 ft / 3,225 m 102.26° 121.24° Asphalt 397 ft / 121 m 148 ft / 45 m
14 148 ft / 45 m 8,842 ft / 2,695 m 116.55° 135.53° Asphalt 338 ft / 103 m 98 ft / 30 m
30 148 ft / 45 m 10,581 ft / 3,225 m 282.25° 301.23° Asphalt 0 ft / 0 m 0 ft / 0 m
32 148 ft / 45 m 8,842 ft / 2,695 m 296.54° 315.52° Asphalt 1,175 ft / 358 m 377 ft / 115 m

FMEP

Details ICAO FMEP (ZSE)
Name ST PIERRE PIERREFONDS
Region Comoros, Mayotte, Réunion and Madagascar
Timezone Unknown (UTC+0.0)
Stats Elevation 56 ft / 17 m (AMSL)
Location -21.320039° 55.423581°
Runways 1
Magnetic Variation 19.531° W

METAR

FMEP 180900Z AUTO 23008KT CAVOK 30/22 Q1016 NOSIG

Decode

TAF

Not found

Destination Runways

ID Width Length Bearing (true) Bearing (mag) Surface Threshold Offset Overrun Length
15 98 ft / 30 m 6,125 ft / 1,867 m 129.02° 148.55° Asphalt 0 ft / 0 m 0 ft / 0 m
33 98 ft / 30 m 6,125 ft / 1,867 m 309.01° 328.54° Asphalt 0 ft / 0 m 0 ft / 0 m

Popular Alternatives